sensor_id;sensor_type;location;lat;lon;timestamp;pressure;altitude;pressure_sealevel;temperature;humidity
34073;BME280;20346;52.702;16.886;2023-01-28T00:02:15;101900.61;;;-1.49;83.15
34073;BME280;20346;52.702;16.886;2023-01-28T00:05:01;101902.02;;;-1.51;83.14
34073;BME280;20346;52.702;16.886;2023-01-28T00:07:48;101901.23;;;-1.57;83.00
34073;BME280;20346;52.702;16.886;2023-01-28T00:10:35;101906.47;;;-1.64;82.90
34073;BME280;20346;52.702;16.886;2023-01-28T00:13:22;101903.11;;;-1.66;83.06
34073;BME280;20346;52.702;16.886;2023-01-28T00:16:09;101898.10;;;-1.69;83.04
34073;BME280;20346;52.702;16.886;2023-01-28T00:18:55;101893.74;;;-1.71;82.99
34073;BME280;20346;52.702;16.886;2023-01-28T00:21:41;101892.52;;;-1.75;82.89
34073;BME280;20346;52.702;16.886;2023-01-28T00:24:27;101890.34;;;-1.77;83.11
34073;BME280;20346;52.702;16.886;2023-01-28T00:27:14;101888.58;;;-1.79;83.07
34073;BME280;20346;52.702;16.886;2023-01-28T00:30:00;101892.84;;;-1.81;83.00
34073;BME280;20346;52.702;16.886;2023-01-28T00:32:46;101894.21;;;-1.84;83.05
34073;BME280;20346;52.702;16.886;2023-01-28T00:35:32;101890.98;;;-1.87;83.00
34073;BME280;20346;52.702;16.886;2023-01-28T00:38:18;101891.98;;;-1.91;83.03
34073;BME280;20346;52.702;16.886;2023-01-28T00:41:11;101895.09;;;-1.92;83.01
34073;BME280;20346;52.702;16.886;2023-01-28T00:43:58;101896.23;;;-1.93;83.02
34073;BME280;20346;52.702;16.886;2023-01-28T00:46:45;101901.95;;;-1.93;83.08
34073;BME280;20346;52.702;16.886;2023-01-28T00:49:31;101900.29;;;-1.96;83.03
34073;BME280;20346;52.702;16.886;2023-01-28T00:52:17;101902.66;;;-1.99;82.98
34073;BME280;20346;52.702;16.886;2023-01-28T00:55:03;101903.70;;;-2.02;82.92
34073;BME280;20346;52.702;16.886;2023-01-28T00:57:51;101904.20;;;-2.05;82.87
34073;BME280;20346;52.702;16.886;2023-01-28T01:00:37;101906.79;;;-2.07;82.99
34073;BME280;20346;52.702;16.886;2023-01-28T01:03:23;101910.29;;;-2.08;82.95
34073;BME280;20346;52.702;16.886;2023-01-28T01:06:10;101907.10;;;-2.11;82.88
34073;BME280;20346;52.702;16.886;2023-01-28T01:08:57;101908.67;;;-2.13;82.89
34073;BME280;20346;52.702;16.886;2023-01-28T01:11:43;101909.48;;;-2.16;82.81
34073;BME280;20346;52.702;16.886;2023-01-28T01:14:29;101910.43;;;-2.21;82.86
34073;BME280;20346;52.702;16.886;2023-01-28T01:17:15;101907.91;;;-2.23;82.87
34073;BME280;20346;52.702;16.886;2023-01-28T01:20:02;101907.00;;;-2.25;82.89
34073;BME280;20346;52.702;16.886;2023-01-28T01:22:48;101906.74;;;-2.26;82.89
34073;BME280;20346;52.702;16.886;2023-01-28T01:25:34;101909.52;;;-2.28;82.90
34073;BME280;20346;52.702;16.886;2023-01-28T01:28:20;101908.33;;;-2.31;82.93
34073;BME280;20346;52.702;16.886;2023-01-28T01:31:09;101909.73;;;-2.33;82.91
34073;BME280;20346;52.702;16.886;2023-01-28T01:33:55;101912.89;;;-2.34;82.99
34073;BME280;20346;52.702;16.886;2023-01-28T01:36:41;101907.80;;;-2.34;82.99
34073;BME280;20346;52.702;16.886;2023-01-28T01:39:28;101904.97;;;-2.37;82.89
34073;BME280;20346;52.702;16.886;2023-01-28T01:42:14;101909.81;;;-2.41;82.78
34073;BME280;20346;52.702;16.886;2023-01-28T01:45:02;101902.09;;;-2.46;82.76
34073;BME280;20346;52.702;16.886;2023-01-28T01:48:13;101901.50;;;-2.47;82.87
34073;BME280;20346;52.702;16.886;2023-01-28T01:51:03;101900.61;;;-2.47;82.91
34073;BME280;20346;52.702;16.886;2023-01-28T01:53:53;101900.38;;;-2.49;82.94
34073;BME280;20346;52.702;16.886;2023-01-28T01:56:41;101901.80;;;-2.51;82.90
34073;BME280;20346;52.702;16.886;2023-01-28T01:59:30;101902.98;;;-2.53;82.90
34073;BME280;20346;52.702;16.886;2023-01-28T02:02:17;101906.37;;;-2.53;82.89
34073;BME280;20346;52.702;16.886;2023-01-28T02:05:03;101904.55;;;-2.56;82.88
34073;BME280;20346;52.702;16.886;2023-01-28T02:07:53;101911.41;;;-2.60;82.79
34073;BME280;20346;52.702;16.886;2023-01-28T02:11:01;101915.44;;;-2.66;82.78
34073;BME280;20346;52.702;16.886;2023-01-28T02:13:49;101914.54;;;-2.70;82.72
34073;BME280;20346;52.702;16.886;2023-01-28T02:16:38;101919.46;;;-2.75;82.70
34073;BME280;20346;52.702;16.886;2023-01-28T02:19:25;101922.17;;;-2.78;82.71
34073;BME280;20346;52.702;16.886;2023-01-28T02:28:43;101926.50;;;-2.79;82.98
34073;BME280;20346;52.702;16.886;2023-01-28T02:31:37;101923.46;;;-2.76;82.99
34073;BME280;20346;52.702;16.886;2023-01-28T02:34:42;101925.73;;;-2.72;83.04
34073;BME280;20346;52.702;16.886;2023-01-28T02:37:34;101926.87;;;-2.67;83.06
34073;BME280;20346;52.702;16.886;2023-01-28T02:40:30;101922.52;;;-2.63;83.03
34073;BME280;20346;52.702;16.886;2023-01-28T02:43:28;101924.05;;;-2.60;82.94
34073;BME280;20346;52.702;16.886;2023-01-28T02:46:19;101926.39;;;-2.57;82.99
34073;BME280;20346;52.702;16.886;2023-01-28T02:52:43;101924.83;;;-2.50;83.02
34073;BME280;20346;52.702;16.886;2023-01-28T02:55:57;101926.27;;;-2.45;83.01
34073;BME280;20346;52.702;16.886;2023-01-28T02:59:04;101926.83;;;-2.41;83.03
34073;BME280;20346;52.702;16.886;2023-01-28T03:02:15;101920.96;;;-2.38;82.96
34073;BME280;20346;52.702;16.886;2023-01-28T03:07:54;101922.80;;;-2.35;82.97
34073;BME280;20346;52.702;16.886;2023-01-28T03:10:40;101924.36;;;-2.34;82.91
34073;BME280;20346;52.702;16.886;2023-01-28T03:13:27;101926.09;;;-2.30;83.01
34073;BME280;20346;52.702;16.886;2023-01-28T03:16:32;101924.10;;;-2.24;83.11
34073;BME280;20346;52.702;16.886;2023-01-28T03:19:37;101925.65;;;-2.20;83.21
34073;BME280;20346;52.702;16.886;2023-01-28T03:22:43;101929.65;;;-2.12;83.20
34073;BME280;20346;52.702;16.886;2023-01-28T03:25:49;101930.39;;;-2.08;83.15
34073;BME280;20346;52.702;16.886;2023-01-28T03:28:58;101931.20;;;-2.03;83.21
34073;BME280;20346;52.702;16.886;2023-01-28T03:32:05;101929.14;;;-1.97;83.23
34073;BME280;20346;52.702;16.886;2023-01-28T03:35:10;101930.14;;;-1.91;83.18
34073;BME280;20346;52.702;16.886;2023-01-28T03:38:19;101925.44;;;-1.88;83.08
34073;BME280;20346;52.702;16.886;2023-01-28T03:41:09;101919.81;;;-1.88;83.04
34073;BME280;20346;52.702;16.886;2023-01-28T03:43:56;101918.13;;;-1.88;83.03
34073;BME280;20346;52.702;16.886;2023-01-28T03:46:43;101915.10;;;-1.85;83.13
34073;BME280;20346;52.702;16.886;2023-01-28T03:49:29;101914.37;;;-1.83;83.05
34073;BME280;20346;52.702;16.886;2023-01-28T03:52:33;101917.89;;;-1.77;83.19
34073;BME280;20346;52.702;16.886;2023-01-28T03:55:19;101921.44;;;-1.74;83.13
34073;BME280;20346;52.702;16.886;2023-01-28T03:58:05;101922.68;;;-1.70;83.11
34073;BME280;20346;52.702;16.886;2023-01-28T04:00:52;101928.44;;;-1.67;83.04
34073;BME280;20346;52.702;16.886;2023-01-28T04:03:38;101933.58;;;-1.62;83.06
34073;BME280;20346;52.702;16.886;2023-01-28T04:06:24;101930.08;;;-1.61;83.08
34073;BME280;20346;52.702;16.886;2023-01-28T04:09:10;101931.38;;;-1.59;82.97
34073;BME280;20346;52.702;16.886;2023-01-28T04:11:57;101924.84;;;-1.61;82.79
34073;BME280;20346;52.702;16.886;2023-01-28T04:14:43;101927.90;;;-1.61;82.90
34073;BME280;20346;52.702;16.886;2023-01-28T04:17:29;101926.68;;;-1.59;82.93
34073;BME280;20346;52.702;16.886;2023-01-28T04:20:15;101929.80;;;-1.57;82.95
34073;BME280;20346;52.702;16.886;2023-01-28T04:23:01;101931.81;;;-1.54;83.03
34073;BME280;20346;52.702;16.886;2023-01-28T04:25:48;101933.71;;;-1.53;82.90
34073;BME280;20346;52.702;16.886;2023-01-28T04:28:34;101936.76;;;-1.50;83.01
34073;BME280;20346;52.702;16.886;2023-01-28T04:31:21;101935.90;;;-1.47;82.98
34073;BME280;20346;52.702;16.886;2023-01-28T04:34:08;101933.14;;;-1.45;82.99
34073;BME280;20346;52.702;16.886;2023-01-28T04:36:55;101933.84;;;-1.42;82.97
34073;BME280;20346;52.702;16.886;2023-01-28T04:39:41;101929.65;;;-1.41;82.89
34073;BME280;20346;52.702;16.886;2023-01-28T04:42:27;101925.30;;;-1.40;82.91
34073;BME280;20346;52.702;16.886;2023-01-28T04:45:13;101926.52;;;-1.36;82.96
34073;BME280;20346;52.702;16.886;2023-01-28T04:47:59;101924.19;;;-1.36;82.90
34073;BME280;20346;52.702;16.886;2023-01-28T04:50:45;101924.11;;;-1.34;82.96
34073;BME280;20346;52.702;16.886;2023-01-28T04:53:31;101924.71;;;-1.32;82.91
34073;BME280;20346;52.702;16.886;2023-01-28T04:56:17;101924.79;;;-1.30;82.83
34073;BME280;20346;52.702;16.886;2023-01-28T04:59:03;101928.43;;;-1.28;82.96
34073;BME280;20346;52.702;16.886;2023-01-28T05:01:49;101931.96;;;-1.26;82.95
34073;BME280;20346;52.702;16.886;2023-01-28T05:04:35;101933.92;;;-1.24;82.98
34073;BME280;20346;52.702;16.886;2023-01-28T05:07:22;101934.67;;;-1.23;83.02
34073;BME280;20346;52.702;16.886;2023-01-28T05:10:08;101937.80;;;-1.21;83.03
34073;BME280;20346;52.702;16.886;2023-01-28T05:12:54;101942.00;;;-1.19;83.03
34073;BME280;20346;52.702;16.886;2023-01-28T05:15:40;101942.59;;;-1.17;82.95
34073;BME280;20346;52.702;16.886;2023-01-28T05:18:26;101947.05;;;-1.16;82.96
34073;BME280;20346;52.702;16.886;2023-01-28T05:21:13;101949.52;;;-1.14;82.98
34073;BME280;20346;52.702;16.886;2023-01-28T05:23:58;101947.53;;;-1.13;82.96
34073;BME280;20346;52.702;16.886;2023-01-28T05:26:44;101948.31;;;-1.11;83.04
34073;BME280;20346;52.702;16.886;2023-01-28T05:29:30;101947.23;;;-1.09;82.97
34073;BME280;20346;52.702;16.886;2023-01-28T05:32:16;101948.17;;;-1.07;83.02
34073;BME280;20346;52.702;16.886;2023-01-28T05:35:02;101950.99;;;-1.06;82.98
34073;BME280;20346;52.702;16.886;2023-01-28T05:37:49;101956.24;;;-1.05;82.92
34073;BME280;20346;52.702;16.886;2023-01-28T05:40:35;101951.64;;;-1.06;82.94
34073;BME280;20346;52.702;16.886;2023-01-28T05:43:21;101955.88;;;-1.06;82.91
34073;BME280;20346;52.702;16.886;2023-01-28T05:46:07;101957.83;;;-1.04;82.99
34073;BME280;20346;52.702;16.886;2023-01-28T05:48:53;101959.73;;;-1.03;83.01
34073;BME280;20346;52.702;16.886;2023-01-28T05:51:40;101968.40;;;-1.02;82.92
34073;BME280;20346;52.702;16.886;2023-01-28T05:54:27;101964.92;;;-1.01;82.97
34073;BME280;20346;52.702;16.886;2023-01-28T05:57:13;101959.87;;;-1.00;82.90
34073;BME280;20346;52.702;16.886;2023-01-28T05:59:59;101961.20;;;-1.01;82.97
34073;BME280;20346;52.702;16.886;2023-01-28T06:02:45;101959.27;;;-0.99;82.90
34073;BME280;20346;52.702;16.886;2023-01-28T06:05:31;101960.84;;;-0.98;82.90
34073;BME280;20346;52.702;16.886;2023-01-28T06:08:17;101965.13;;;-0.96;82.88
34073;BME280;20346;52.702;16.886;2023-01-28T06:11:03;101964.83;;;-0.96;82.89
34073;BME280;20346;52.702;16.886;2023-01-28T06:13:49;101967.55;;;-0.96;82.85
34073;BME280;20346;52.702;16.886;2023-01-28T06:16:34;101969.14;;;-0.94;82.98
34073;BME280;20346;52.702;16.886;2023-01-28T06:19:21;101968.60;;;-0.92;83.05
34073;BME280;20346;52.702;16.886;2023-01-28T06:22:07;101968.66;;;-0.90;82.94
34073;BME280;20346;52.702;16.886;2023-01-28T06:24:53;101968.31;;;-0.91;82.98
34073;BME280;20346;52.702;16.886;2023-01-28T06:27:39;101968.80;;;-0.91;82.95
34073;BME280;20346;52.702;16.886;2023-01-28T06:30:25;101974.67;;;-0.92;82.93
34073;BME280;20346;52.702;16.886;2023-01-28T06:33:12;101977.52;;;-0.93;82.98
34073;BME280;20346;52.702;16.886;2023-01-28T06:35:58;101975.48;;;-0.93;82.97
34073;BME280;20346;52.702;16.886;2023-01-28T06:38:46;101978.36;;;-0.93;82.92
34073;BME280;20346;52.702;16.886;2023-01-28T06:41:33;101980.34;;;-0.94;82.86
34073;BME280;20346;52.702;16.886;2023-01-28T06:44:19;101982.91;;;-0.93;82.89
34073;BME280;20346;52.702;16.886;2023-01-28T06:47:05;101985.59;;;-0.94;82.81
34073;BME280;20346;52.702;16.886;2023-01-28T06:49:52;101989.60;;;-0.94;82.75
34073;BME280;20346;52.702;16.886;2023-01-28T06:52:38;101990.77;;;-0.98;82.57
34073;BME280;20346;52.702;16.886;2023-01-28T06:55:25;101999.34;;;-0.99;82.67
34073;BME280;20346;52.702;16.886;2023-01-28T06:58:11;102000.60;;;-1.01;82.45
34073;BME280;20346;52.702;16.886;2023-01-28T07:00:57;101999.82;;;-1.03;82.42
34073;BME280;20346;52.702;16.886;2023-01-28T07:03:44;101991.24;;;-1.06;82.35
34073;BME280;20346;52.702;16.886;2023-01-28T07:06:30;101994.70;;;-1.08;82.43
34073;BME280;20346;52.702;16.886;2023-01-28T07:09:17;101998.31;;;-1.10;82.37
34073;BME280;20346;52.702;16.886;2023-01-28T07:12:03;102003.64;;;-1.11;82.35
34073;BME280;20346;52.702;16.886;2023-01-28T07:14:50;102008.92;;;-1.11;82.38
34073;BME280;20346;52.702;16.886;2023-01-28T07:17:42;102012.14;;;-1.14;82.26
34073;BME280;20346;52.702;16.886;2023-01-28T07:20:29;102015.20;;;-1.16;82.19
34073;BME280;20346;52.702;16.886;2023-01-28T07:23:15;102011.00;;;-1.19;82.15
34073;BME280;20346;52.702;16.886;2023-01-28T07:26:02;102010.63;;;-1.17;82.15
34073;BME280;20346;52.702;16.886;2023-01-28T07:28:48;102009.87;;;-1.15;82.17
34073;BME280;20346;52.702;16.886;2023-01-28T07:31:34;102010.87;;;-1.12;82.25
34073;BME280;20346;52.702;16.886;2023-01-28T07:34:20;102005.58;;;-1.10;82.12
34073;BME280;20346;52.702;16.886;2023-01-28T07:37:06;102004.10;;;-1.06;82.07
34073;BME280;20346;52.702;16.886;2023-01-28T07:39:53;102005.35;;;-1.08;81.94
34073;BME280;20346;52.702;16.886;2023-01-28T07:42:39;102010.41;;;-1.08;81.99
34073;BME280;20346;52.702;16.886;2023-01-28T07:45:25;102010.99;;;-1.07;81.82
34073;BME280;20346;52.702;16.886;2023-01-28T07:48:13;102008.58;;;-1.08;81.95
34073;BME280;20346;52.702;16.886;2023-01-28T07:50:59;102006.04;;;-1.04;82.01
34073;BME280;20346;52.702;16.886;2023-01-28T07:53:46;102010.45;;;-1.01;82.11
34073;BME280;20346;52.702;16.886;2023-01-28T07:56:32;102010.11;;;-0.97;82.00
34073;BME280;20346;52.702;16.886;2023-01-28T07:59:19;102009.22;;;-0.95;81.92
34073;BME280;20346;52.702;16.886;2023-01-28T08:02:08;102011.70;;;-0.93;81.96
34073;BME280;20346;52.702;16.886;2023-01-28T08:04:54;102007.48;;;-0.93;81.89
34073;BME280;20346;52.702;16.886;2023-01-28T08:07:44;102006.13;;;-0.89;82.07
34073;BME280;20346;52.702;16.886;2023-01-28T08:10:30;102003.55;;;-0.87;82.00
34073;BME280;20346;52.702;16.886;2023-01-28T08:13:17;102004.39;;;-0.84;81.91
34073;BME280;20346;52.702;16.886;2023-01-28T08:16:04;102004.85;;;-0.82;81.87
34073;BME280;20346;52.702;16.886;2023-01-28T08:18:51;102004.78;;;-0.80;81.84
34073;BME280;20346;52.702;16.886;2023-01-28T08:21:37;102007.96;;;-0.77;81.88
34073;BME280;20346;52.702;16.886;2023-01-28T08:24:23;102004.25;;;-0.74;81.93
34073;BME280;20346;52.702;16.886;2023-01-28T08:27:09;102003.02;;;-0.72;81.88
34073;BME280;20346;52.702;16.886;2023-01-28T08:29:55;102006.68;;;-0.70;81.91
34073;BME280;20346;52.702;16.886;2023-01-28T08:32:41;102005.67;;;-0.66;82.05
34073;BME280;20346;52.702;16.886;2023-01-28T08:35:28;102006.62;;;-0.64;81.88
34073;BME280;20346;52.702;16.886;2023-01-28T08:38:14;102008.67;;;-0.60;81.95
34073;BME280;20346;52.702;16.886;2023-01-28T08:41:02;102007.23;;;-0.55;82.00
34073;BME280;20346;52.702;16.886;2023-01-28T08:43:48;102006.39;;;-0.51;81.99
34073;BME280;20346;52.702;16.886;2023-01-28T08:46:34;102013.71;;;-0.48;81.97
34073;BME280;20346;52.702;16.886;2023-01-28T08:49:20;102016.09;;;-0.44;81.90
34073;BME280;20346;52.702;16.886;2023-01-28T08:52:07;102013.95;;;-0.43;81.83
34073;BME280;20346;52.702;16.886;2023-01-28T08:54:53;102009.48;;;-0.41;81.88
34073;BME280;20346;52.702;16.886;2023-01-28T08:57:39;102012.83;;;-0.38;81.82
34073;BME280;20346;52.702;16.886;2023-01-28T09:00:25;102020.36;;;-0.37;81.78
34073;BME280;20346;52.702;16.886;2023-01-28T09:03:11;102022.20;;;-0.34;81.75
34073;BME280;20346;52.702;16.886;2023-01-28T09:06:01;102020.59;;;-0.32;81.78
34073;BME280;20346;52.702;16.886;2023-01-28T09:08:47;102018.11;;;-0.31;81.84
34073;BME280;20346;52.702;16.886;2023-01-28T09:11:33;102016.98;;;-0.30;81.79
34073;BME280;20346;52.702;16.886;2023-01-28T09:14:19;102016.59;;;-0.27;81.72
34073;BME280;20346;52.702;16.886;2023-01-28T09:17:05;102014.22;;;-0.24;81.72
34073;BME280;20346;52.702;16.886;2023-01-28T09:19:52;102015.00;;;-0.25;81.70
34073;BME280;20346;52.702;16.886;2023-01-28T09:22:38;102014.86;;;-0.25;81.68
34073;BME280;20346;52.702;16.886;2023-01-28T09:25:24;102018.40;;;-0.25;81.56
34073;BME280;20346;52.702;16.886;2023-01-28T09:28:10;102023.37;;;-0.24;81.65
34073;BME280;20346;52.702;16.886;2023-01-28T09:31:00;102022.36;;;-0.24;81.63
34073;BME280;20346;52.702;16.886;2023-01-28T09:33:46;102019.95;;;-0.21;81.66
34073;BME280;20346;52.702;16.886;2023-01-28T09:36:33;102027.54;;;-0.19;81.73
34073;BME280;20346;52.702;16.886;2023-01-28T09:39:19;102022.10;;;-0.22;81.76
34073;BME280;20346;52.702;16.886;2023-01-28T09:45:19;102027.20;;;-0.29;81.63
34073;BME280;20346;52.702;16.886;2023-01-28T09:48:12;102026.05;;;-0.28;81.60
34073;BME280;20346;52.702;16.886;2023-01-28T09:50:59;102027.96;;;-0.27;81.58
34073;BME280;20346;52.702;16.886;2023-01-28T09:53:47;102029.77;;;-0.25;81.64
34073;BME280;20346;52.702;16.886;2023-01-28T09:56:39;102034.16;;;-0.25;81.40
34073;BME280;20346;52.702;16.886;2023-01-28T09:59:33;102033.14;;;-0.22;81.44
34073;BME280;20346;52.702;16.886;2023-01-28T10:08:21;102042.63;;;-0.12;81.45
34073;BME280;20346;52.702;16.886;2023-01-28T10:11:23;102038.00;;;-0.10;81.46
34073;BME280;20346;52.702;16.886;2023-01-28T10:14:23;102035.84;;;-0.12;81.35
34073;BME280;20346;52.702;16.886;2023-01-28T10:17:15;102047.23;;;-0.15;81.31
34073;BME280;20346;52.702;16.886;2023-01-28T10:20:12;102038.75;;;-0.15;81.31
34073;BME280;20346;52.702;16.886;2023-01-28T10:25:49;102034.50;;;-0.12;81.14
34073;BME280;20346;52.702;16.886;2023-01-28T10:28:35;102037.54;;;-0.12;81.21
34073;BME280;20346;52.702;16.886;2023-01-28T10:31:22;102040.27;;;-0.12;81.20
34073;BME280;20346;52.702;16.886;2023-01-28T10:34:09;102044.21;;;-0.11;81.15
34073;BME280;20346;52.702;16.886;2023-01-28T10:36:56;102039.70;;;-0.10;81.18
34073;BME280;20346;52.702;16.886;2023-01-28T10:39:42;102036.85;;;-0.09;81.10
34073;BME280;20346;52.702;16.886;2023-01-28T10:42:30;102042.31;;;-0.08;81.16
34073;BME280;20346;52.702;16.886;2023-01-28T10:45:18;102041.17;;;-0.11;80.92
34073;BME280;20346;52.702;16.886;2023-01-28T10:51:11;102043.95;;;-0.06;80.78
34073;BME280;20346;52.702;16.886;2023-01-28T10:53:57;102042.70;;;-0.04;80.84
34073;BME280;20346;52.702;16.886;2023-01-28T10:56:43;102042.35;;;-0.01;80.80
34073;BME280;20346;52.702;16.886;2023-01-28T10:59:30;102049.83;;;-0.01;80.69
34073;BME280;20346;52.702;16.886;2023-01-28T11:02:28;102050.18;;;0.00;80.63
34073;BME280;20346;52.702;16.886;2023-01-28T11:05:23;102050.86;;;-0.03;80.55
34073;BME280;20346;52.702;16.886;2023-01-28T11:08:13;102046.47;;;-0.03;80.52
34073;BME280;20346;52.702;16.886;2023-01-28T11:10:59;102042.58;;;-0.03;80.43
34073;BME280;20346;52.702;16.886;2023-01-28T11:13:48;102036.60;;;-0.04;80.42
34073;BME280;20346;52.702;16.886;2023-01-28T11:16:34;102034.95;;;-0.03;80.45
34073;BME280;20346;52.702;16.886;2023-01-28T11:19:28;102031.33;;;-0.01;80.46
34073;BME280;20346;52.702;16.886;2023-01-28T11:22:23;102031.61;;;0.06;80.51
34073;BME280;20346;52.702;16.886;2023-01-28T11:28:14;102029.31;;;0.11;80.47
34073;BME280;20346;52.702;16.886;2023-01-28T11:31:02;102021.64;;;0.17;80.64
34073;BME280;20346;52.702;16.886;2023-01-28T11:33:49;102019.21;;;0.22;80.69
34073;BME280;20346;52.702;16.886;2023-01-28T11:36:37;102017.89;;;0.27;80.61
34073;BME280;20346;52.702;16.886;2023-01-28T11:39:34;102015.41;;;0.28;80.46
34073;BME280;20346;52.702;16.886;2023-01-28T11:42:20;102008.66;;;0.29;80.55
34073;BME280;20346;52.702;16.886;2023-01-28T11:45:10;102004.09;;;0.32;80.50
34073;BME280;20346;52.702;16.886;2023-01-28T11:57:13;102007.48;;;0.40;80.50
34073;BME280;20346;52.702;16.886;2023-01-28T12:00:16;102003.86;;;0.42;80.38
34073;BME280;20346;52.702;16.886;2023-01-28T12:06:27;101996.82;;;0.44;80.47
34073;BME280;20346;52.702;16.886;2023-01-28T12:15:36;101990.55;;;0.44;80.23
34073;BME280;20346;52.702;16.886;2023-01-28T12:24:35;101992.68;;;0.35;80.18
34073;BME280;20346;52.702;16.886;2023-01-28T12:27:33;101984.17;;;0.34;80.26
34073;BME280;20346;52.702;16.886;2023-01-28T12:34:34;101985.58;;;0.36;80.26
34073;BME280;20346;52.702;16.886;2023-01-28T12:43:18;101981.51;;;0.39;80.31
34073;BME280;20346;52.702;16.886;2023-01-28T12:49:24;101980.21;;;0.44;80.27
34073;BME280;20346;52.702;16.886;2023-01-28T12:52:16;101974.80;;;0.48;80.29
34073;BME280;20346;52.702;16.886;2023-01-28T12:55:17;101976.63;;;0.50;80.30
34073;BME280;20346;52.702;16.886;2023-01-28T12:58:06;101983.02;;;0.53;80.18
34073;BME280;20346;52.702;16.886;2023-01-28T13:00:57;101982.13;;;0.56;80.17
34073;BME280;20346;52.702;16.886;2023-01-28T13:06:54;101976.90;;;0.64;80.27
34073;BME280;20346;52.702;16.886;2023-01-28T13:09:44;101974.64;;;0.67;80.15
34073;BME280;20346;52.702;16.886;2023-01-28T13:12:33;101975.23;;;0.68;80.11
34073;BME280;20346;52.702;16.886;2023-01-28T13:15:20;101975.70;;;0.68;79.91
34073;BME280;20346;52.702;16.886;2023-01-28T13:18:27;101971.74;;;0.66;79.97
34073;BME280;20346;52.702;16.886;2023-01-28T13:21:28;101976.89;;;0.68;80.11
34073;BME280;20346;52.702;16.886;2023-01-28T13:27:22;101969.02;;;0.70;80.12
34073;BME280;20346;52.702;16.886;2023-01-28T13:30:27;101956.14;;;0.71;80.07
34073;BME280;20346;52.702;16.886;2023-01-28T13:33:28;101951.35;;;0.73;80.02
34073;BME280;20346;52.702;16.886;2023-01-28T13:39:24;101950.69;;;0.74;79.93
34073;BME280;20346;52.702;16.886;2023-01-28T13:42:29;101953.16;;;0.72;79.97
34073;BME280;20346;52.702;16.886;2023-01-28T13:51:24;101965.86;;;0.75;80.02
34073;BME280;20346;52.702;16.886;2023-01-28T13:54:16;101959.08;;;0.76;79.97
34073;BME280;20346;52.702;16.886;2023-01-28T14:03:25;101958.54;;;0.75;79.92
34073;BME280;20346;52.702;16.886;2023-01-28T14:15:36;101961.02;;;0.70;79.90
34073;BME280;20346;52.702;16.886;2023-01-28T14:18:32;101966.22;;;0.68;79.91
34073;BME280;20346;52.702;16.886;2023-01-28T14:21:20;101970.24;;;0.67;79.93
34073;BME280;20346;52.702;16.886;2023-01-28T14:24:11;101966.74;;;0.65;79.87
34073;BME280;20346;52.702;16.886;2023-01-28T14:27:08;101969.43;;;0.64;79.88
34073;BME280;20346;52.702;16.886;2023-01-28T14:33:08;101962.68;;;0.61;79.75
34073;BME280;20346;52.702;16.886;2023-01-28T14:35:55;101961.53;;;0.58;79.80
34073;BME280;20346;52.702;16.886;2023-01-28T14:38:42;101956.08;;;0.58;79.76
34073;BME280;20346;52.702;16.886;2023-01-28T14:41:28;101957.19;;;0.56;79.74
34073;BME280;20346;52.702;16.886;2023-01-28T14:44:58;101952.20;;;0.55;79.70
34073;BME280;20346;52.702;16.886;2023-01-28T14:59:53;101949.58;;;0.45;79.70
34073;BME280;20346;52.702;16.886;2023-01-28T15:02:41;101943.59;;;0.44;79.85
34073;BME280;20346;52.702;16.886;2023-01-28T15:05:28;101943.90;;;0.44;79.70
34073;BME280;20346;52.702;16.886;2023-01-28T15:08:21;101947.23;;;0.42;79.72
34073;BME280;20346;52.702;16.886;2023-01-28T15:11:09;101948.69;;;0.41;79.70
34073;BME280;20346;52.702;16.886;2023-01-28T15:13:56;101944.85;;;0.39;79.66
34073;BME280;20346;52.702;16.886;2023-01-28T15:16:47;101944.13;;;0.37;79.70
34073;BME280;20346;52.702;16.886;2023-01-28T15:19:34;101946.95;;;0.36;79.61
34073;BME280;20346;52.702;16.886;2023-01-28T15:22:25;101944.54;;;0.36;79.63
34073;BME280;20346;52.702;16.886;2023-01-28T15:25:18;101940.05;;;0.34;79.58
34073;BME280;20346;52.702;16.886;2023-01-28T15:28:05;101934.08;;;0.33;79.48
34073;BME280;20346;52.702;16.886;2023-01-28T15:30:51;101929.45;;;0.32;79.55
34073;BME280;20346;52.702;16.886;2023-01-28T15:33:37;101930.45;;;0.31;79.55
34073;BME280;20346;52.702;16.886;2023-01-28T15:36:23;101922.71;;;0.29;79.60
34073;BME280;20346;52.702;16.886;2023-01-28T15:42:00;101929.80;;;0.25;79.49
34073;BME280;20346;52.702;16.886;2023-01-28T15:44:48;101934.00;;;0.24;79.50
34073;BME280;20346;52.702;16.886;2023-01-28T15:47:34;101926.15;;;0.23;79.50
34073;BME280;20346;52.702;16.886;2023-01-28T15:50:21;101929.66;;;0.22;79.50
34073;BME280;20346;52.702;16.886;2023-01-28T15:53:08;101933.20;;;0.22;79.48
34073;BME280;20346;52.702;16.886;2023-01-28T15:56:02;101939.30;;;0.22;79.47
34073;BME280;20346;52.702;16.886;2023-01-28T15:58:49;101939.55;;;0.20;79.42
34073;BME280;20346;52.702;16.886;2023-01-28T16:01:34;101943.77;;;0.19;79.47
34073;BME280;20346;52.702;16.886;2023-01-28T16:04:24;101949.38;;;0.20;79.48
34073;BME280;20346;52.702;16.886;2023-01-28T16:07:11;101956.45;;;0.18;79.53
34073;BME280;20346;52.702;16.886;2023-01-28T16:09:58;101951.47;;;0.17;79.43
34073;BME280;20346;52.702;16.886;2023-01-28T16:12:51;101946.09;;;0.15;79.41
34073;BME280;20346;52.702;16.886;2023-01-28T16:15:38;101940.36;;;0.12;79.40
34073;BME280;20346;52.702;16.886;2023-01-28T16:21:37;101939.77;;;0.10;79.41
34073;BME280;20346;52.702;16.886;2023-01-28T16:24:28;101942.77;;;0.09;79.40
34073;BME280;20346;52.702;16.886;2023-01-28T16:27:21;101946.82;;;0.09;79.41
34073;BME280;20346;52.702;16.886;2023-01-28T16:30:08;101952.08;;;0.09;79.43
34073;BME280;20346;52.702;16.886;2023-01-28T16:32:54;101958.66;;;0.08;79.41
34073;BME280;20346;52.702;16.886;2023-01-28T16:35:40;101958.79;;;0.07;79.46
34073;BME280;20346;52.702;16.886;2023-01-28T16:38:26;101963.02;;;0.07;79.36